Terminal Aerodrome Forecast
Issued by NWS

Home | Current Version | Previous Version | Text Only | Print | Product List | Glossary On
Versions: 1 2 3 4 5 6 7 8 9 10 11 12 13
000
FTUS43 KEAX 301728
TAFSTJ
TAF
KSTJ 301728Z 3018/0118 02008KT P6SM SKC
     FM010900 00000KT 3SM BR SCT015
     FM011200 00000KT 1SM BR BKN005
     FM011300 VRB02KT P6SM BKN008
     FM011400 02005KT P6SM BKN015
     FM011700 02006KT P6SM BKN020=

USA.gov is the U.S. government's official web portal to all federal, state and local government web resources and services.